Time;durP1;ratioP1;P1;durP2;ratioP2;P2;SDS_P1;SDS_P2;PMS_P1;PMS_P2;Temp;Humidity;BMP_temperature;BMP_pressure;BME280_temperature;BME280_humidity;BME280_pressure;Samples;Min_cycle;Max_cycle;Signal;HPM_P1;HPM_P2
2022/06/13 00:00:25;;;;;;;8.90;7.72;;;;;;;;;;5053404;28;20066;-46
2022/06/13 00:02:50;;;;;;;13.15;7.78;;;;;;;;;;5053331;28;20108;-48
2022/06/13 00:05:17;;;;;;;9.93;7.43;;;;;;;;;;5052867;28;20107;-43
2022/06/13 00:07:42;;;;;;;14.77;8.43;;;;;;;;;;5051695;28;20473;-43
2022/06/13 00:10:09;;;;;;;9.93;7.75;;;;;;;;;;5052914;28;20100;-41
2022/06/13 00:12:35;;;;;;;8.95;7.13;;;;;;;;;;5053164;28;20043;-43
2022/06/13 00:15:01;;;;;;;9.38;6.85;;;;;;;;;;5052864;28;20495;-45
2022/06/13 00:17:27;;;;;;;7.28;6.47;;;;;;;;;;5053045;28;20029;-43
2022/06/13 00:19:52;;;;;;;11.45;6.95;;;;;;;;;;5052812;28;20366;-43
2022/06/13 00:22:18;;;;;;;7.65;6.40;;;;;;;;;;5052740;28;20040;-43
2022/06/13 00:24:45;;;;;;;7.53;6.32;;;;;;;;;;5052633;28;20495;-44
2022/06/13 00:27:10;;;;;;;7.15;5.65;;;;;;;;;;5052978;28;20032;-44
2022/06/13 00:29:39;;;;;;;9.68;6.85;;;;;;;;;;5052606;28;20392;-45
2022/06/13 00:32:05;;;;;;;6.43;5.63;;;;;;;;;;5052841;28;20039;-46
2022/06/13 00:34:31;;;;;;;8.25;6.63;;;;;;;;;;5053110;28;20104;-43
2022/06/13 00:36:56;;;;;;;9.82;6.50;;;;;;;;;;5052744;28;20027;-45
2022/06/13 00:39:21;;;;;;;7.05;6.35;;;;;;;;;;5052541;28;20066;-46
2022/06/13 00:41:48;;;;;;;7.43;6.43;;;;;;;;;;5052712;28;20061;-46
2022/06/13 00:44:19;;;;;;;8.55;6.10;;;;;;;;;;5052505;28;20051;-44
2022/06/13 00:46:45;;;;;;;7.20;5.72;;;;;;;;;;5052596;28;20044;-48
2022/06/13 00:49:18;;;;;;;9.50;6.95;;;;;;;;;;5052666;28;20381;-42
2022/06/13 00:51:48;;;;;;;8.57;5.82;;;;;;;;;;5052933;28;20040;-51
2022/06/13 00:54:15;;;;;;;10.00;6.20;;;;;;;;;;5052365;28;20063;-43
2022/06/13 00:56:42;;;;;;;6.57;5.75;;;;;;;;;;5052301;28;20045;-42
2022/06/13 00:59:13;;;;;;;6.30;5.60;;;;;;;;;;5052352;28;20025;-41
2022/06/13 01:01:39;;;;;;;6.93;5.50;;;;;;;;;;5052278;28;20518;-43
2022/06/13 01:04:05;;;;;;;7.43;6.00;;;;;;;;;;5052249;28;20041;-43
2022/06/13 01:06:35;;;;;;;8.23;6.10;;;;;;;;;;5052386;28;20075;-43
2022/06/13 01:09:03;;;;;;;7.90;6.07;;;;;;;;;;5052485;28;20067;-43
2022/06/13 01:11:29;;;;;;;13.00;6.20;;;;;;;;;;5052095;28;20074;-45
2022/06/13 01:14:04;;;;;;;7.95;6.13;;;;;;;;;;5050956;28;20116;-43
2022/06/13 01:16:47;;;;;;;8.48;6.72;;;;;;;;;;5052427;28;20049;-45
2022/06/13 01:19:36;;;;;;;9.70;6.50;;;;;;;;;;5052472;28;20032;-41
2022/06/13 01:22:04;;;;;;;8.25;5.70;;;;;;;;;;5052324;28;20032;-43
2022/06/13 01:24:48;;;;;;;11.43;6.07;;;;;;;;;;5052350;28;20064;-44
2022/06/13 01:27:19;;;;;;;9.00;5.50;;;;;;;;;;5052080;28;20485;-42
2022/06/13 01:29:58;;;;;;;10.35;5.85;;;;;;;;;;5052326;28;20029;-41
2022/06/13 01:33:02;;;;;;;9.50;6.17;;;;;;;;;;5052390;28;20099;-41
2022/06/13 01:35:40;;;;;;;9.18;5.97;;;;;;;;;;5052003;28;20025;-41
2022/06/13 01:38:35;;;;;;;12.40;6.65;;;;;;;;;;5052259;28;20087;-41
2022/06/13 01:41:11;;;;;;;7.93;6.35;;;;;;;;;;5051942;28;20025;-41
2022/06/13 01:43:53;;;;;;;7.53;6.72;;;;;;;;;;5050618;28;20029;-43
2022/06/13 01:46:30;;;;;;;7.57;6.50;;;;;;;;;;5052070;28;20029;-44
2022/06/13 01:49:01;;;;;;;7.78;6.78;;;;;;;;;;5051822;28;20052;-43
2022/06/13 01:52:01;;;;;;;7.30;6.40;;;;;;;;;;5052111;28;20033;-45
2022/06/13 01:54:41;;;;;;;8.82;5.93;;;;;;;;;;5051846;28;20108;-44
2022/06/13 01:57:22;;;;;;;9.25;6.05;;;;;;;;;;5052106;28;20056;-42
2022/06/13 02:00:03;;;;;;;;;;;;;;;;;;5052171;28;20485;-43
2022/06/13 02:02:50;;;;;;;11.52;6.13;;;;;;;;;;5052000;28;19913;-41
2022/06/13 02:05:32;;;;;;;9.68;6.22;;;;;;;;;;5051867;28;20044;-41
2022/06/13 02:08:16;;;;;;;9.00;7.00;;;;;;;;;;5051980;28;20104;-43
2022/06/13 02:10:46;;;;;;;12.50;6.45;;;;;;;;;;5055286;28;20361;-46
2022/06/13 02:13:18;;;;;;;9.52;6.07;;;;;;;;;;5055097;28;20025;-43
2022/06/13 02:15:52;;;;;;;8.95;6.65;;;;;;;;;;5055086;28;20476;-46
2022/06/13 02:18:52;;;;;;;7.55;6.82;;;;;;;;;;5055135;28;20493;-43
2022/06/13 02:21:20;;;;;;;;;;;;;;;;;;5036606;28;20051;-43
2022/06/13 02:23:49;;;;;;;9.93;6.65;;;;;;;;;;5055289;28;19966;-43
2022/06/13 02:26:23;;;;;;;7.93;7.07;;;;;;;;;;5055153;28;20111;-44
2022/06/13 02:28:54;;;;;;;7.32;6.63;;;;;;;;;;5054816;28;20490;-41
2022/06/13 02:31:27;;;;;;;8.80;6.80;;;;;;;;;;5054860;28;20033;-41
2022/06/13 02:34:00;;;;;;;7.28;6.55;;;;;;;;;;5055065;28;20025;-41
2022/06/13 02:36:43;;;;;;;7.78;6.50;;;;;;;;;;5053867;28;20028;-47
2022/06/13 02:39:36;;;;;;;6.95;6.25;;;;;;;;;;5054689;28;20074;-43
2022/06/13 02:42:17;;;;;;;8.35;6.40;;;;;;;;;;5054663;28;20059;-47
2022/06/13 02:44:48;;;;;;;7.65;6.40;;;;;;;;;;5054910;28;20029;-47
2022/06/13 02:47:27;;;;;;;11.10;5.85;;;;;;;;;;5054815;28;20029;-41
2022/06/13 02:50:10;;;;;;;7.72;6.40;;;;;;;;;;5054831;28;20024;-48
2022/06/13 02:52:42;;;;;;;9.00;5.88;;;;;;;;;;5054763;28;20057;-46
2022/06/13 02:55:13;;;;;;;7.68;5.70;;;;;;;;;;5054431;28;20045;-44
2022/06/13 02:58:08;;;;;;;7.15;5.75;;;;;;;;;;5054585;28;20044;-45
2022/06/13 03:01:15;;;;;;;7.93;5.47;;;;;;;;;;5054624;28;20100;-45
2022/06/13 03:03:53;;;;;;;6.25;4.97;;;;;;;;;;5051019;28;20037;-42
2022/06/13 03:06:40;;;;;;;6.57;5.85;;;;;;;;;;5054418;28;20106;-44
2022/06/13 03:09:15;;;;;;;6.88;5.57;;;;;;;;;;5054469;28;20045;-42
2022/06/13 03:12:01;;;;;;;7.05;6.35;;;;;;;;;;5054326;28;20025;-44
2022/06/13 03:14:46;;;;;;;7.05;5.95;;;;;;;;;;5054400;28;20028;-49
2022/06/13 03:17:17;;;;;;;13.18;5.95;;;;;;;;;;5054242;28;20111;-42
2022/06/13 03:20:08;;;;;;;5.72;5.22;;;;;;;;;;5054162;28;20404;-45
2022/06/13 03:22:52;;;;;;;6.30;5.32;;;;;;;;;;5054215;28;20100;-43
2022/06/13 03:25:38;;;;;;;6.75;5.03;;;;;;;;;;5054023;28;20033;-42
2022/06/13 03:28:16;;;;;;;6.30;4.95;;;;;;;;;;5053867;28;20025;-42
2022/06/13 03:30:52;;;;;;;6.13;4.78;;;;;;;;;;5054076;28;20029;-47
2022/06/13 03:33:40;;;;;;;5.35;4.72;;;;;;;;;;5054078;28;20021;-50
2022/06/13 03:36:15;;;;;;;6.28;4.60;;;;;;;;;;5053603;28;20029;-44
2022/06/13 03:38:47;;;;;;;5.90;4.45;;;;;;;;;;5053907;28;20040;-45
2022/06/13 03:41:16;;;;;;;6.55;5.13;;;;;;;;;;5053839;28;20029;-42
2022/06/13 03:44:00;;;;;;;9.30;4.88;;;;;;;;;;5053776;28;20036;-42
2022/06/13 03:46:37;;;;;;;6.40;4.88;;;;;;;;;;5053694;28;20029;-44
2022/06/13 03:49:15;;;;;;;6.05;4.13;;;;;;;;;;5053743;28;20055;-44
2022/06/13 03:51:45;;;;;;;5.25;4.72;;;;;;;;;;5053355;28;20025;-44
2022/06/13 03:54:28;;;;;;;9.98;5.20;;;;;;;;;;5053885;28;20024;-42
2022/06/13 03:57:00;;;;;;;8.85;4.60;;;;;;;;;;5053263;28;20025;-41
2022/06/13 03:59:31;;;;;;;6.65;5.00;;;;;;;;;;5053419;28;20039;-43
2022/06/13 04:02:01;;;;;;;8.20;5.47;;;;;;;;;;5053480;28;20017;-44
2022/06/13 04:04:33;;;;;;;5.28;4.78;;;;;;;;;;5053437;28;20025;-43
2022/06/13 04:07:01;;;;;;;6.30;4.97;;;;;;;;;;5053346;28;20028;-43
2022/06/13 04:09:37;;;;;;;5.82;4.90;;;;;;;;;;5053284;28;20028;-58
2022/06/13 04:12:24;;;;;;;6.55;5.47;;;;;;;;;;5053231;28;20032;-49
2022/06/13 04:15:21;;;;;;;5.60;5.10;;;;;;;;;;5053183;28;20024;-60
2022/06/13 04:17:59;;;;;;;5.57;4.90;;;;;;;;;;5053201;28;20048;-53
2022/06/13 04:20:29;;;;;;;10.88;4.85;;;;;;;;;;5053121;28;20071;-47
2022/06/13 04:23:07;;;;;;;7.53;4.78;;;;;;;;;;5053111;28;20029;-47
2022/06/13 04:26:10;;;;;;;7.47;4.72;;;;;;;;;;5052719;28;20025;-49
2022/06/13 04:28:45;;;;;;;5.65;4.95;;;;;;;;;;5045906;28;20049;-55
2022/06/13 04:31:12;;;;;;;5.47;4.95;;;;;;;;;;5052748;28;20027;-44
2022/06/13 04:33:50;;;;;;;5.57;5.07;;;;;;;;;;5052392;28;20041;-58
2022/06/13 04:36:17;;;;;;;7.00;5.18;;;;;;;;;;5052980;28;20021;-47
2022/06/13 04:38:52;;;;;;;10.13;4.53;;;;;;;;;;5052605;28;20037;-51
2022/06/13 04:41:21;;;;;;;5.00;4.47;;;;;;;;;;5052822;28;20079;-48
2022/06/13 04:43:52;;;;;;;5.53;5.00;;;;;;;;;;5052399;28;20021;-60
2022/06/13 04:46:21;;;;;;;7.65;4.85;;;;;;;;;;5052767;28;20060;-61
2022/06/13 04:48:49;;;;;;;9.85;6.47;;;;;;;;;;5052411;28;20107;-60
2022/06/13 04:51:19;;;;;;;5.55;4.63;;;;;;;;;;5052738;28;20377;-58
2022/06/13 04:53:57;;;;;;;6.18;4.97;;;;;;;;;;5052342;28;20017;-45
2022/06/13 04:56:23;;;;;;;9.88;4.70;;;;;;;;;;5052257;28;20052;-63
2022/06/13 04:58:52;;;;;;;6.03;4.53;;;;;;;;;;5052520;28;20029;-64
2022/06/13 05:01:30;;;;;;;4.53;4.13;;;;;;;;;;5052613;28;20108;-61
2022/06/13 05:03:58;;;;;;;7.88;4.20;;;;;;;;;;5052250;28;20384;-57
2022/06/13 05:06:40;;;;;;;4.57;4.10;;;;;;;;;;5052356;28;20028;-48
2022/06/13 05:09:12;;;;;;;5.55;3.05;;;;;;;;;;5052478;28;20040;-46
2022/06/13 05:12:06;;;;;;;3.83;3.10;;;;;;;;;;5052493;28;20036;-49
2022/06/13 05:14:35;;;;;;;3.88;2.70;;;;;;;;;;5052288;28;20044;-47
2022/06/13 05:17:14;;;;;;;4.45;2.90;;;;;;;;;;5052177;28;20404;-47
2022/06/13 05:19:55;;;;;;;5.70;3.10;;;;;;;;;;5052481;28;20417;-60
2022/06/13 05:23:01;;;;;;;2.92;2.60;;;;;;;;;;5052144;28;20385;-48
2022/06/13 05:25:35;;;;;;;4.60;2.63;;;;;;;;;;5041069;28;20477;-48
2022/06/13 05:28:00;;;;;;;2.90;2.60;;;;;;;;;;5051910;28;20096;-64
2022/06/13 05:30:27;;;;;;;2.75;2.55;;;;;;;;;;5051971;28;20107;-53
2022/06/13 05:32:55;;;;;;;6.45;2.42;;;;;;;;;;5051642;28;20029;-55
2022/06/13 05:35:24;;;;;;;2.75;2.40;;;;;;;;;;5050171;28;20025;-48
2022/06/13 05:37:51;;;;;;;2.50;2.30;;;;;;;;;;5049983;28;20523;-49
2022/06/13 05:40:19;;;;;;;2.42;2.28;;;;;;;;;;5050273;28;20358;-48
2022/06/13 05:42:46;;;;;;;3.83;2.40;;;;;;;;;;5051513;28;20025;-55
2022/06/13 05:45:12;;;;;;;2.58;2.38;;;;;;;;;;5050408;28;20106;-43
2022/06/13 05:47:40;;;;;;;6.03;2.33;;;;;;;;;;5049963;28;20503;-54
2022/06/13 05:50:06;;;;;;;2.42;2.22;;;;;;;;;;5054037;28;20392;-43
2022/06/13 05:52:31;;;;;;;2.63;2.05;;;;;;;;;;5053908;28;20017;-45
2022/06/13 05:54:56;;;;;;;6.55;2.42;;;;;;;;;;5053685;28;20412;-65
2022/06/13 05:57:22;;;;;;;4.00;2.53;;;;;;;;;;5053813;28;20043;-70
2022/06/13 05:59:47;;;;;;;2.92;2.13;;;;;;;;;;5053570;28;20033;-46
2022/06/13 06:02:12;;;;;;;3.38;2.75;;;;;;;;;;5052341;28;20024;-49
2022/06/13 06:04:39;;;;;;;6.65;4.18;;;;;;;;;;5052153;28;20075;-44
2022/06/13 06:07:04;;;;;;;7.28;4.45;;;;;;;;;;5051881;28;20045;-46
2022/06/13 06:09:30;;;;;;;6.43;4.40;;;;;;;;;;5052494;28;20040;-46
2022/06/13 06:11:55;;;;;;;3.88;2.35;;;;;;;;;;5052148;28;20029;-49
2022/06/13 06:14:21;;;;;;;7.70;3.28;;;;;;;;;;5051980;28;20025;-50
2022/06/13 06:16:46;;;;;;;3.65;2.55;;;;;;;;;;5052049;28;20021;-70
2022/06/13 06:19:12;;;;;;;3.33;1.85;;;;;;;;;;5052174;28;20028;-65
2022/06/13 06:21:39;;;;;;;2.42;2.22;;;;;;;;;;5052041;28;20488;-52
2022/06/13 06:24:05;;;;;;;3.00;2.20;;;;;;;;;;5051912;28;20029;-47
2022/06/13 06:26:30;;;;;;;3.65;2.40;;;;;;;;;;5051804;28;20047;-60
2022/06/13 06:28:55;;;;;;;6.93;2.20;;;;;;;;;;5051656;28;20036;-55
2022/06/13 06:31:21;;;;;;;2.75;2.55;;;;;;;;;;5051561;28;20074;-47
2022/06/13 06:33:47;;;;;;;4.60;2.40;;;;;;;;;;5051540;28;20041;-56
2022/06/13 06:36:12;;;;;;;4.22;2.50;;;;;;;;;;5051677;28;20025;-49
2022/06/13 06:38:38;;;;;;;7.18;4.60;;;;;;;;;;5051511;28;20032;-47
2022/06/13 06:41:04;;;;;;;9.10;4.95;;;;;;;;;;5051682;28;20072;-54
2022/06/13 06:43:29;;;;;;;6.18;4.25;;;;;;;;;;5051399;28;20129;-54
2022/06/13 06:45:55;;;;;;;2.40;2.20;;;;;;;;;;5051417;28;20036;-46
2022/06/13 06:48:22;;;;;;;9.50;4.63;;;;;;;;;;5051196;28;20025;-46
2022/06/13 06:50:49;;;;;;;6.13;3.13;;;;;;;;;;5051415;28;20618;-50
2022/06/13 06:53:20;;;;;;;3.85;2.20;;;;;;;;;;5052534;28;20033;-67
2022/06/13 07:01:16;;;;;;;6.28;3.63;;;;;;;;;;5053153;28;20064;-47
2022/06/13 07:03:42;;;;;;;2.88;2.30;;;;;;;;;;5051256;28;20029;-49
2022/06/13 07:06:08;;;;;;;7.72;2.90;;;;;;;;;;5052818;28;20113;-52
2022/06/13 07:08:35;;;;;;;5.43;2.10;;;;;;;;;;5052490;28;20111;-51
2022/06/13 07:13:46;;;;;;;5.90;2.45;;;;;;;;;;5052808;28;20036;-46
2022/06/13 07:16:12;;;;;;;3.05;2.53;;;;;;;;;;5052168;28;20037;-46
2022/06/13 07:18:38;;;;;;;3.72;2.40;;;;;;;;;;5052539;28;20033;-48
2022/06/13 07:21:04;;;;;;;3.47;2.42;;;;;;;;;;5052124;28;20035;-62
2022/06/13 07:23:29;;;;;;;3.08;2.30;;;;;;;;;;5052534;28;20093;-51
2022/06/13 07:25:54;;;;;;;3.28;2.20;;;;;;;;;;5052175;28;20029;-53
2022/06/13 07:28:20;;;;;;;2.30;2.10;;;;;;;;;;5051980;28;20397;-52
2022/06/13 07:30:45;;;;;;;2.40;2.20;;;;;;;;;;5051816;28;20037;-55
2022/06/13 07:33:11;;;;;;;4.32;2.90;;;;;;;;;;5051901;28;20017;-52
2022/06/13 07:35:36;;;;;;;7.85;2.95;;;;;;;;;;5052289;28;20108;-49
2022/06/13 07:38:17;;;;;;;3.65;2.40;;;;;;;;;;5051900;28;20535;-55
2022/06/13 07:40:48;;;;;;;3.15;2.53;;;;;;;;;;5052264;28;20017;-51
2022/06/13 07:43:36;;;;;;;5.00;3.63;;;;;;;;;;5052205;28;20131;-53
2022/06/13 07:46:04;;;;;;;3.17;2.72;;;;;;;;;;5052138;28;20366;-49
2022/06/13 07:48:31;;;;;;;4.28;2.67;;;;;;;;;;5051742;28;20507;-51
2022/06/13 07:50:57;;;;;;;10.93;3.10;;;;;;;;;;5052090;28;20037;-49
2022/06/13 07:53:23;;;;;;;5.72;2.72;;;;;;;;;;5051678;28;20053;-49
2022/06/13 07:55:49;;;;;;;3.35;2.30;;;;;;;;;;5051455;28;20149;-46
2022/06/13 07:58:30;;;;;;;1.95;1.85;;;;;;;;;;5051696;28;20436;-66
2022/06/13 08:00:55;;;;;;;2.30;2.10;;;;;;;;;;5050506;28;20102;-50
2022/06/13 08:03:29;;;;;;;5.38;2.00;;;;;;;;;;5051312;28;20060;-68
2022/06/13 08:05:55;;;;;;;2.85;2.13;;;;;;;;;;5051301;28;20037;-64
2022/06/13 08:08:21;;;;;;;4.20;2.38;;;;;;;;;;5050623;28;20087;-61
2022/06/13 08:10:48;;;;;;;5.85;2.10;;;;;;;;;;5051462;28;20064;-50
2022/06/13 08:13:16;;;;;;;2.53;2.08;;;;;;;;;;5051731;28;20025;-63
2022/06/13 08:15:42;;;;;;;14.23;3.33;;;;;;;;;;5051437;28;20032;-64
2022/06/13 08:18:09;;;;;;;2.42;2.10;;;;;;;;;;5051636;28;20036;-52
2022/06/13 08:20:35;;;;;;;16.92;2.40;;;;;;;;;;5051429;28;20017;-48
2022/06/13 08:23:02;;;;;;;2.80;2.08;;;;;;;;;;5051301;28;20460;-59
2022/06/13 08:25:31;;;;;;;2.15;1.92;;;;;;;;;;5051113;28;20076;-58
2022/06/13 08:27:58;;;;;;;3.30;1.80;;;;;;;;;;5051129;28;20033;-54
2022/06/13 08:30:25;;;;;;;3.17;1.83;;;;;;;;;;5050813;28;20036;-50
2022/06/13 08:32:50;;;;;;;3.65;2.10;;;;;;;;;;5051187;28;20040;-67
2022/06/13 08:35:16;;;;;;;4.13;2.00;;;;;;;;;;5050865;28;20025;-53
2022/06/13 08:37:41;;;;;;;6.68;2.60;;;;;;;;;;5051551;28;20125;-67
2022/06/13 08:40:09;;;;;;;2.45;2.13;;;;;;;;;;5052751;28;20027;-50
2022/06/13 08:42:57;;;;;;;2.42;1.90;;;;;;;;;;5052569;28;20033;-53
2022/06/13 08:45:37;;;;;;;2.50;2.08;;;;;;;;;;5051196;28;20029;-57
2022/06/13 08:48:12;;;;;;;5.28;2.60;;;;;;;;;;5052680;28;20037;-61
2022/06/13 08:50:41;;;;;;;4.15;2.30;;;;;;;;;;5050629;28;20113;-56
2022/06/13 08:53:19;;;;;;;4.90;2.22;;;;;;;;;;5049361;28;20032;-48
2022/06/13 08:55:48;;;;;;;7.65;3.20;;;;;;;;;;5050455;28;20041;-47
2022/06/13 08:58:26;;;;;;;3.55;2.20;;;;;;;;;;5050763;28;20116;-50
2022/06/13 09:01:13;;;;;;;2.40;2.20;;;;;;;;;;5050745;28;21364;-48
2022/06/13 09:03:54;;;;;;;4.93;2.30;;;;;;;;;;5047422;28;20071;-49
2022/06/13 09:06:28;;;;;;;2.42;2.22;;;;;;;;;;5049652;28;20021;-70
2022/06/13 09:09:09;;;;;;;3.22;2.15;;;;;;;;;;5050182;28;20025;-62
2022/06/13 09:11:46;;;;;;;5.30;2.10;;;;;;;;;;5050772;28;20137;-62
2022/06/13 09:14:22;;;;;;;2.55;2.30;;;;;;;;;;5050686;28;20080;-68
2022/06/13 09:17:20;;;;;;;4.13;2.50;;;;;;;;;;5050910;28;20036;-70
2022/06/13 09:19:54;;;;;;;;;;;;;;;;;;5054884;28;20037;-64
2022/06/13 09:22:33;;;;;;;4.15;2.33;;;;;;;;;;5054737;28;19931;-49
2022/06/13 09:25:09;;;;;;;9.57;3.30;;;;;;;;;;5054311;28;20503;-61
2022/06/13 09:27:41;;;;;;;2.15;2.00;;;;;;;;;;5054493;28;20159;-49
2022/06/13 09:30:27;;;;;;;2.88;2.20;;;;;;;;;;5054434;28;20102;-47
2022/06/13 09:32:55;;;;;;;4.35;2.63;;;;;;;;;;5054419;28;20028;-67
2022/06/13 09:35:36;;;;;;;5.15;3.22;;;;;;;;;;5054555;28;20419;-47
2022/06/13 09:38:28;;;;;;;6.18;2.30;;;;;;;;;;5054572;28;20064;-48
2022/06/13 09:41:02;;;;;;;5.10;2.22;;;;;;;;;;5053890;28;20043;-49
2022/06/13 09:43:57;;;;;;;4.50;2.30;;;;;;;;;;5054204;28;20626;-56
2022/06/13 09:46:44;;;;;;;6.00;2.63;;;;;;;;;;5053687;28;20037;-52
2022/06/13 09:49:15;;;;;;;4.40;2.40;;;;;;;;;;5054364;28;20113;-62
2022/06/13 09:52:07;;;;;;;3.28;2.97;;;;;;;;;;5054175;28;20029;-57
2022/06/13 09:54:41;;;;;;;2.88;2.50;;;;;;;;;;5053606;28;20045;-61
2022/06/13 09:57:42;;;;;;;2.72;2.30;;;;;;;;;;5052103;28;20527;-60
2022/06/13 10:00:37;;;;;;;3.55;2.50;;;;;;;;;;5054144;28;20110;-52
2022/06/13 10:03:11;;;;;;;4.63;3.35;;;;;;;;;;5053328;28;20033;-47
2022/06/13 10:05:50;;;;;;;2.40;2.20;;;;;;;;;;5054050;28;20421;-71
2022/06/13 10:08:38;;;;;;;2.90;2.70;;;;;;;;;;5053979;28;20033;-48
2022/06/13 10:11:12;;;;;;;2.50;2.30;;;;;;;;;;5053844;28;20028;-58
2022/06/13 10:14:05;;;;;;;5.10;2.80;;;;;;;;;;5053323;28;20029;-56
2022/06/13 10:16:58;;;;;;;3.08;2.78;;;;;;;;;;5053689;28;20068;-57
2022/06/13 10:19:42;;;;;;;3.50;2.47;;;;;;;;;;5053625;28;20451;-61
2022/06/13 10:22:29;;;;;;;3.03;2.72;;;;;;;;;;5053649;28;20021;-50
2022/06/13 10:25:29;;;;;;;4.35;2.28;;;;;;;;;;5053509;28;20041;-47
2022/06/13 10:28:22;;;;;;;2.75;2.55;;;;;;;;;;5053244;28;20033;-55
2022/06/13 10:31:03;;;;;;;4.18;2.50;;;;;;;;;;5052619;28;20458;-52
2022/06/13 10:33:41;;;;;;;2.88;2.63;;;;;;;;;;5053093;28;20473;-66
2022/06/13 10:36:30;;;;;;;2.40;2.20;;;;;;;;;;5053412;28;20110;-59
2022/06/13 10:38:58;;;;;;;;;;;;;;;;;;5053421;28;20095;-60
2022/06/13 10:41:28;;;;;;;6.35;2.65;;;;;;;;;;5053173;28;19913;-58
2022/06/13 10:43:55;;;;;;;3.20;2.53;;;;;;;;;;5052932;28;20063;-58
2022/06/13 10:46:21;;;;;;;4.13;2.60;;;;;;;;;;5053226;28;20392;-49
2022/06/13 10:49:10;;;;;;;2.38;2.17;;;;;;;;;;5051788;28;20033;-56
2022/06/13 10:51:38;;;;;;;2.40;2.20;;;;;;;;;;5053146;28;20083;-55
2022/06/13 10:54:09;;;;;;;4.53;2.78;;;;;;;;;;5052921;28;20079;-50
2022/06/13 10:56:41;;;;;;;2.22;2.13;;;;;;;;;;5052612;28;20060;-49
2022/06/13 10:59:06;;;;;;;3.58;2.42;;;;;;;;;;5053124;28;20104;-52
2022/06/13 11:01:32;;;;;;;3.40;2.33;;;;;;;;;;5052925;28;20121;-52
2022/06/13 11:04:18;;;;;;;2.55;2.35;;;;;;;;;;5053117;28;20078;-54
2022/06/13 11:06:50;;;;;;;2.42;2.20;;;;;;;;;;5052831;28;20112;-50
2022/06/13 11:09:26;;;;;;;2.17;1.98;;;;;;;;;;5052492;28;20029;-63
2022/06/13 11:12:01;;;;;;;3.50;2.10;;;;;;;;;;5052510;28;20497;-51
2022/06/13 11:22:37;;;;;;;3.97;2.40;;;;;;;;;;5052388;28;20032;-57
2022/06/13 11:23:05;;;;;;;14.68;5.88;;;;;;;;;;5052351;28;20151;-68
2022/06/13 11:25:34;;;;;;;2.15;2.00;;;;;;;;;;5050975;28;20111;-56
2022/06/13 11:28:15;;;;;;;2.40;1.80;;;;;;;;;;5052516;28;20029;-62
2022/06/13 11:30:51;;;;;;;5.95;2.35;;;;;;;;;;5052562;28;20074;-49
2022/06/13 11:33:24;;;;;;;3.03;2.45;;;;;;;;;;5052442;28;20036;-54
2022/06/13 11:35:54;;;;;;;3.22;2.28;;;;;;;;;;5052265;28;20052;-53
2022/06/13 11:38:33;;;;;;;2.20;2.00;;;;;;;;;;5052098;28;20033;-61
2022/06/13 11:41:15;;;;;;;1.77;1.67;;;;;;;;;;5052163;28;20040;-44
2022/06/13 11:43:48;;;;;;;4.80;1.85;;;;;;;;;;5050805;28;20087;-53
2022/06/13 11:46:52;;;;;;;4.07;2.53;;;;;;;;;;5052185;28;20112;-63
2022/06/13 11:49:18;;;;;;;3.78;1.90;;;;;;;;;;5051696;28;20043;-57
2022/06/13 11:51:56;;;;;;;3.67;2.33;;;;;;;;;;5050485;28;20037;-63
2022/06/13 11:54:27;;;;;;;10.95;5.80;;;;;;;;;;5051676;28;20273;-69
2022/06/13 11:57:15;;;;;;;2.47;2.15;;;;;;;;;;5050181;28;20037;-56
2022/06/13 11:59:49;;;;;;;2.60;2.00;;;;;;;;;;5051922;28;20032;-64
2022/06/13 12:02:25;;;;;;;3.35;2.88;;;;;;;;;;5051888;28;20037;-65
2022/06/13 12:04:54;;;;;;;7.15;2.97;;;;;;;;;;5050728;28;20063;-68
2022/06/13 12:07:31;;;;;;;2.72;1.90;;;;;;;;;;5051477;28;20123;-52
2022/06/13 12:09:59;;;;;;;3.65;2.10;;;;;;;;;;5051732;28;20045;-58
2022/06/13 12:12:40;;;;;;;2.13;1.73;;;;;;;;;;5051715;28;20087;-62
2022/06/13 12:15:09;;;;;;;1.60;1.50;;;;;;;;;;5051687;28;20056;-49
2022/06/13 12:17:39;;;;;;;2.22;1.70;;;;;;;;;;5051181;28;20526;-59
2022/06/13 12:20:15;;;;;;;3.03;2.00;;;;;;;;;;5051314;28;20519;-68
2022/06/13 12:22:46;;;;;;;3.38;2.10;;;;;;;;;;5050015;28;20067;-54
2022/06/13 12:25:19;;;;;;;1.88;1.77;;;;;;;;;;5051194;28;20461;-58
2022/06/13 12:27:53;;;;;;;2.20;1.80;;;;;;;;;;5051096;28;20504;-56
2022/06/13 12:30:49;;;;;;;4.03;1.90;;;;;;;;;;5050739;28;20029;-50
2022/06/13 12:33:39;;;;;;;2.63;1.90;;;;;;;;;;5050954;28;20033;-50
2022/06/13 12:36:59;;;;;;;2.13;1.50;;;;;;;;;;5051071;28;20492;-51
2022/06/13 12:39:34;;;;;;;4.55;2.35;;;;;;;;;;5028226;28;20034;-64
2022/06/13 12:42:09;;;;;;;2.88;2.38;;;;;;;;;;5047817;28;20118;-67
2022/06/13 12:44:43;;;;;;;2.70;1.83;;;;;;;;;;5050861;28;20024;-66
2022/06/13 12:47:30;;;;;;;6.30;3.20;;;;;;;;;;5051194;28;20039;-61
2022/06/13 12:50:01;;;;;;;2.00;1.85;;;;;;;;;;5050920;28;20032;-54
2022/06/13 12:52:58;;;;;;;5.60;2.65;;;;;;;;;;5050299;28;20397;-49
2022/06/13 12:55:50;;;;;;;2.22;1.70;;;;;;;;;;5050694;28;20053;-50
2022/06/13 12:58:43;;;;;;;1.70;1.60;;;;;;;;;;5050779;28;20416;-49
2022/06/13 13:01:22;;;;;;;3.45;1.65;;;;;;;;;;5050922;28;20045;-67
2022/06/13 13:03:57;;;;;;;1.83;1.42;;;;;;;;;;5050973;28;20021;-63
2022/06/13 13:06:27;;;;;;;1.95;1.75;;;;;;;;;;5050686;28;20123;-53
2022/06/13 13:09:11;;;;;;;2.47;2.13;;;;;;;;;;5050961;28;20033;-53
2022/06/13 13:11:48;;;;;;;2.35;1.65;;;;;;;;;;5050800;28;20140;-47
2022/06/13 13:14:44;;;;;;;2.58;1.67;;;;;;;;;;5050606;28;20083;-63
2022/06/13 13:17:36;;;;;;;1.70;1.60;;;;;;;;;;5050794;28;20025;-52
2022/06/13 13:20:27;;;;;;;2.15;1.42;;;;;;;;;;5050769;28;20064;-56
2022/06/13 13:23:01;;;;;;;2.03;1.55;;;;;;;;;;5050592;28;20056;-48
2022/06/13 13:25:47;;;;;;;8.45;3.20;;;;;;;;;;5050840;28;20056;-44
2022/06/13 13:28:26;;;;;;;3.17;1.60;;;;;;;;;;5050660;28;20112;-68
2022/06/13 13:30:52;;;;;;;;;;;;;;;;;;5050937;28;20488;-56
2022/06/13 13:33:34;;;;;;;1.60;1.50;;;;;;;;;;5050726;28;19917;-52
2022/06/13 13:36:35;;;;;;;2.80;1.80;;;;;;;;;;5050380;28;20075;-61
2022/06/13 13:39:13;;;;;;;1.63;1.52;;;;;;;;;;5050511;28;20028;-63
2022/06/13 13:41:56;;;;;;;2.97;1.77;;;;;;;;;;5049240;28;20036;-49
2022/06/13 13:45:23;;;;;;;2.53;1.50;;;;;;;;;;5050318;28;20135;-50
2022/06/13 13:47:52;;;;;;;1.48;1.38;;;;;;;;;;5029814;28;20049;-50
2022/06/13 13:50:23;;;;;;;1.60;1.50;;;;;;;;;;5050157;28;20445;-55
2022/06/13 13:52:53;;;;;;;4.32;1.90;;;;;;;;;;5050657;28;20128;-49
2022/06/13 13:55:58;;;;;;;4.10;1.90;;;;;;;;;;5050136;28;20041;-46
2022/06/13 13:58:30;;;;;;;3.20;1.90;;;;;;;;;;5050566;28;20052;-63
2022/06/13 14:01:24;;;;;;;3.47;2.00;;;;;;;;;;5050413;28;20023;-67
2022/06/13 14:04:08;;;;;;;3.22;2.10;;;;;;;;;;5050129;28;20033;-49
2022/06/13 14:06:49;;;;;;;4.20;2.10;;;;;;;;;;5053380;28;20484;-65
2022/06/13 14:09:19;;;;;;;1.90;1.77;;;;;;;;;;5053887;28;20055;-48
2022/06/13 14:12:08;;;;;;;1.83;1.70;;;;;;;;;;5054018;28;20499;-58
2022/06/13 14:14:48;;;;;;;3.55;1.90;;;;;;;;;;5053836;28;20033;-48
2022/06/13 14:17:27;;;;;;;4.90;1.83;;;;;;;;;;5053719;28;20029;-54
2022/06/13 14:19:56;;;;;;;3.22;2.15;;;;;;;;;;5053985;28;20029;-54
2022/06/13 14:22:23;;;;;;;1.92;1.83;;;;;;;;;;5054344;28;20033;-52
2022/06/13 14:25:03;;;;;;;2.30;1.80;;;;;;;;;;5055006;28;20107;-47
2022/06/13 14:27:31;;;;;;;3.08;2.42;;;;;;;;;;5055278;28;20056;-56
2022/06/13 14:33:04;;;;;;;4.30;1.80;;;;;;;;;;5044310;28;20048;-55
2022/06/13 14:35:45;;;;;;;2.83;2.20;;;;;;;;;;5055089;28;20025;-45
2022/06/13 14:38:18;;;;;;;7.10;3.00;;;;;;;;;;5054831;28;20469;-49
2022/06/13 14:40:57;;;;;;;8.38;2.10;;;;;;;;;;5054994;28;20035;-50
2022/06/13 14:43:42;;;;;;;5.90;2.83;;;;;;;;;;5055041;28;20021;-54
2022/06/13 14:46:36;;;;;;;3.40;2.15;;;;;;;;;;5054967;28;20032;-47
2022/06/13 14:49:14;;;;;;;2.15;2.00;;;;;;;;;;5054664;28;20025;-49
2022/06/13 14:52:18;;;;;;;3.30;1.90;;;;;;;;;;5054881;28;20044;-44
2022/06/13 14:54:46;;;;;;;4.68;3.00;;;;;;;;;;5054318;28;20039;-46
2022/06/13 14:57:27;;;;;;;5.47;2.40;;;;;;;;;;5054425;28;20060;-60
2022/06/13 15:00:09;;;;;;;2.85;2.25;;;;;;;;;;5054715;28;20033;-48
2022/06/13 15:02:58;;;;;;;5.20;2.58;;;;;;;;;;5054309;28;20465;-65
2022/06/13 15:05:49;;;;;;;2.90;2.25;;;;;;;;;;5054294;28;20435;-63
2022/06/13 15:08:14;;;;;;;3.75;2.85;;;;;;;;;;5054460;28;20072;-50
2022/06/13 15:10:54;;;;;;;6.53;2.70;;;;;;;;;;5054269;28;20021;-48
2022/06/13 15:13:24;;;;;;;2.50;1.90;;;;;;;;;;5052881;28;20025;-51
2022/06/13 15:15:59;;;;;;;6.65;3.50;;;;;;;;;;5053922;28;20419;-48
2022/06/13 15:18:29;;;;;;;6.57;3.95;;;;;;;;;;5054330;28;20056;-50
2022/06/13 15:20:56;;;;;;;5.85;3.42;;;;;;;;;;5054304;28;20052;-60
2022/06/13 15:23:38;;;;;;;6.50;2.97;;;;;;;;;;5053966;28;20025;-58
2022/06/13 15:26:05;;;;;;;6.28;3.70;;;;;;;;;;5053981;28;20056;-59
2022/06/13 15:29:07;;;;;;;4.68;3.15;;;;;;;;;;5051869;28;20082;-64
2022/06/13 15:31:35;;;;;;;5.68;2.90;;;;;;;;;;5054137;28;20013;-63
2022/06/13 15:34:31;;;;;;;15.07;3.88;;;;;;;;;;5054119;28;20102;-46
2022/06/13 15:37:04;;;;;;;7.32;3.50;;;;;;;;;;5048820;28;20041;-47
2022/06/13 15:39:36;;;;;;;7.38;3.85;;;;;;;;;;5054032;28;20377;-64
2022/06/13 15:42:06;;;;;;;13.68;4.88;;;;;;;;;;5053694;28;20059;-63
2022/06/13 15:44:34;;;;;;;8.32;3.70;;;;;;;;;;5053543;28;20040;-66
2022/06/13 15:47:03;;;;;;;8.65;3.10;;;;;;;;;;5053484;28;20465;-63
2022/06/13 15:49:55;;;;;;;7.05;3.60;;;;;;;;;;5053344;28;20522;-58